createdAt,value
2022-11-04T00:02:17.812Z,2.60
2022-11-04T00:04:44.989Z,3.70
2022-11-04T00:07:33.881Z,3.85
2022-11-04T00:10:01.060Z,2.67
2022-11-04T00:12:28.400Z,2.92
2022-11-04T00:15:15.573Z,2.38
2022-11-04T00:17:42.759Z,2.33
2022-11-04T00:20:28.727Z,2.67
2022-11-04T00:23:14.651Z,2.58
2022-11-04T00:26:00.528Z,2.80
2022-11-04T00:28:42.918Z,2.92
2022-11-04T00:31:28.738Z,2.75
2022-11-04T00:33:57.879Z,2.67
2022-11-04T00:36:25.849Z,2.60
2022-11-04T00:38:53.580Z,2.33
2022-11-04T00:41:27.915Z,3.00
2022-11-04T00:44:04.889Z,2.88
2022-11-04T00:46:33.691Z,3.78
2022-11-04T00:49:01.090Z,2.90
2022-11-04T00:51:28.479Z,2.88
2022-11-04T00:53:58.304Z,3.38
2022-11-04T00:56:25.738Z,3.05
2022-11-04T00:58:53.039Z,3.95
2022-11-04T01:01:20.876Z,4.45
2022-11-04T01:03:50.588Z,3.08
2022-11-04T01:06:18.500Z,3.38
2022-11-04T01:08:46.012Z,3.58
2022-11-04T01:11:13.959Z,3.10
2022-11-04T01:13:41.179Z,2.80
2022-11-04T01:16:11.184Z,2.30
2022-11-04T01:18:38.800Z,2.90
2022-11-04T01:21:07.858Z,2.90
2022-11-04T01:23:36.041Z,2.50
2022-11-04T01:26:07.990Z,2.72
2022-11-04T01:28:35.569Z,2.53
2022-11-04T01:31:07.429Z,2.65
2022-11-04T01:33:35.018Z,3.25
2022-11-04T01:36:02.662Z,2.40
2022-11-04T01:38:30.638Z,2.25
2022-11-04T01:40:57.822Z,2.55
2022-11-04T01:43:48.570Z,2.33
2022-11-04T01:46:25.948Z,2.92
2022-11-04T01:48:55.299Z,3.05
2022-11-04T01:51:23.077Z,2.30
2022-11-04T01:53:55.327Z,3.10
2022-11-04T01:56:24.109Z,3.20
2022-11-04T01:58:56.608Z,2.70
2022-11-04T02:01:24.108Z,2.67
2022-11-04T02:03:56.140Z,2.78
2022-11-04T02:06:23.744Z,2.75
2022-11-04T02:08:51.116Z,3.08
2022-11-04T02:11:37.184Z,3.20
2022-11-04T02:14:04.623Z,3.47
2022-11-04T02:16:45.675Z,2.80
2022-11-04T02:19:54.466Z,3.97
2022-11-04T02:22:52.987Z,3.20
2022-11-04T02:25:32.225Z,3.10
2022-11-04T02:27:59.556Z,2.95
2022-11-04T02:30:33.416Z,3.65
2022-11-04T02:33:14.877Z,3.05
2022-11-04T02:35:57.435Z,3.03
2022-11-04T02:38:46.515Z,3.20
2022-11-04T02:41:17.274Z,3.08
2022-11-04T02:44:03.626Z,3.47
2022-11-04T02:46:49.870Z,3.85
2022-11-04T02:49:55.875Z,3.63
2022-11-04T02:52:33.273Z,3.15
2022-11-04T02:55:10.616Z,3.45
2022-11-04T02:57:41.020Z,4.00
2022-11-04T03:00:11.165Z,3.45
2022-11-04T03:02:42.665Z,3.78
2022-11-04T03:05:23.347Z,2.92
2022-11-04T03:07:54.226Z,3.15
2022-11-04T03:10:31.361Z,2.80
2022-11-04T03:13:25.116Z,4.25
2022-11-04T03:15:58.863Z,3.35
2022-11-04T03:21:10.125Z,2.72
2022-11-04T03:23:37.915Z,2.47
2022-11-04T03:26:22.109Z,3.25
2022-11-04T03:29:30.587Z,2.72
2022-11-04T03:31:58.076Z,2.70
2022-11-04T03:34:25.450Z,1.70
2022-11-04T03:36:52.910Z,1.98
2022-11-04T03:39:20.256Z,1.88
2022-11-04T03:41:51.635Z,1.52
2022-11-04T03:44:19.175Z,1.35
2022-11-04T03:46:46.815Z,1.98
2022-11-04T03:49:15.494Z,1.50
2022-11-04T03:51:42.747Z,1.55
2022-11-04T03:54:10.255Z,2.03
2022-11-04T03:56:43.345Z,1.38
2022-11-04T03:59:22.879Z,1.60
2022-11-04T04:01:55.486Z,1.63
2022-11-04T04:04:22.828Z,1.40
2022-11-04T04:06:53.625Z,1.60
2022-11-04T04:09:40.061Z,2.67
2022-11-04T04:12:16.116Z,1.33
2022-11-04T04:14:51.845Z,1.30
2022-11-04T04:17:30.429Z,1.50
2022-11-04T04:20:27.435Z,1.80
2022-11-04T04:23:29.417Z,1.48
2022-11-04T04:26:18.435Z,1.42
2022-11-04T04:28:47.157Z,1.25
2022-11-04T04:31:39.509Z,1.52
2022-11-04T04:34:07.626Z,1.20
2022-11-04T04:36:45.604Z,1.30
2022-11-04T04:39:34.330Z,1.17
2022-11-04T04:42:20.674Z,1.70
2022-11-04T04:45:00.625Z,1.60
2022-11-04T04:47:42.595Z,1.50
2022-11-04T04:50:11.615Z,1.50
2022-11-04T04:52:41.675Z,1.77
2022-11-04T04:55:10.217Z,1.45
2022-11-04T04:57:37.676Z,2.45
2022-11-04T05:00:06.886Z,1.27
2022-11-04T05:02:34.315Z,1.70
2022-11-04T05:05:01.987Z,1.50
2022-11-04T05:07:29.598Z,1.98
2022-11-04T05:09:56.980Z,1.75
2022-11-04T05:12:24.470Z,1.30
2022-11-04T05:14:51.822Z,1.50
2022-11-04T05:17:19.161Z,1.20
2022-11-04T05:19:46.531Z,1.40
2022-11-04T05:22:13.808Z,1.45
2022-11-04T05:24:41.200Z,1.25
2022-11-04T05:27:08.601Z,1.20
2022-11-04T05:29:35.968Z,1.48
2022-11-04T05:32:03.307Z,1.63
2022-11-04T05:34:30.778Z,1.80
2022-11-04T05:36:59.618Z,2.28
2022-11-04T05:39:26.906Z,1.73
2022-11-04T05:41:54.218Z,1.63
2022-11-04T05:44:21.538Z,1.90
2022-11-04T05:46:48.980Z,1.77
2022-11-04T05:49:16.358Z,2.10
2022-11-04T05:51:43.662Z,2.22
2022-11-04T05:54:11.086Z,2.13
2022-11-04T05:56:38.448Z,2.00
2022-11-04T05:59:05.787Z,1.83
2022-11-04T06:01:36.298Z,2.03
2022-11-04T06:04:05.658Z,2.28
2022-11-04T06:06:35.750Z,2.40
2022-11-04T06:09:04.038Z,2.40
2022-11-04T06:11:31.893Z,1.90
2022-11-04T06:13:59.518Z,2.35
2022-11-04T06:16:27.070Z,2.17
2022-11-04T06:18:54.922Z,3.03
2022-11-04T06:21:32.253Z,2.78
2022-11-04T06:24:00.418Z,2.08
2022-11-04T06:26:29.238Z,2.30
2022-11-04T06:28:57.878Z,2.85
2022-11-04T06:31:25.307Z,2.60
2022-11-04T06:33:52.707Z,2.38
2022-11-04T06:36:20.019Z,2.42
2022-11-04T06:38:47.498Z,2.50
2022-11-04T06:41:17.092Z,2.88
2022-11-04T06:43:44.808Z,2.75
2022-11-04T06:46:31.842Z,2.65
2022-11-04T06:48:59.228Z,2.28
2022-11-04T06:51:26.631Z,2.28
2022-11-04T06:53:54.538Z,2.63
2022-11-04T06:56:22.048Z,2.35
2022-11-04T06:58:51.109Z,3.60
2022-11-04T07:01:22.040Z,3.33
2022-11-04T07:03:51.678Z,2.80
2022-11-04T07:06:19.777Z,2.60
2022-11-04T07:08:48.231Z,2.17
2022-11-04T07:11:17.297Z,2.88
2022-11-04T07:13:44.707Z,2.83
2022-11-04T07:16:13.237Z,3.22
2022-11-04T07:18:40.668Z,2.83
2022-11-04T07:21:10.195Z,2.83
2022-11-04T07:23:38.248Z,2.70
2022-11-04T07:26:07.969Z,2.78
2022-11-04T07:28:36.149Z,4.13
2022-11-04T07:31:05.198Z,2.90
2022-11-04T07:33:33.989Z,3.20
2022-11-04T07:36:11.410Z,2.78
2022-11-04T07:38:38.799Z,2.70
2022-11-04T07:41:06.369Z,3.40
2022-11-04T07:43:33.828Z,2.28
2022-11-04T07:46:03.378Z,2.50
2022-11-04T07:48:30.860Z,2.45
2022-11-04T07:51:00.340Z,3.08
2022-11-04T07:53:29.028Z,3.08
2022-11-04T07:55:56.469Z,2.58
2022-11-04T07:58:25.755Z,2.75
2022-11-04T08:01:02.160Z,2.92
2022-11-04T08:03:29.590Z,2.78
2022-11-04T08:06:01.725Z,3.03
2022-11-04T08:08:29.521Z,2.83
2022-11-04T08:11:02.397Z,2.85
2022-11-04T08:13:34.786Z,3.10
2022-11-04T08:16:04.194Z,3.25
2022-11-04T08:18:32.795Z,3.55
2022-11-04T08:21:02.561Z,3.92
2022-11-04T08:23:30.289Z,4.05
2022-11-04T08:25:58.277Z,4.85
2022-11-04T08:28:26.567Z,3.55
2022-11-04T08:31:02.215Z,3.80
2022-11-04T08:33:31.595Z,4.28
2022-11-04T08:36:09.556Z,3.90
2022-11-04T08:38:37.432Z,2.90
2022-11-04T08:41:06.457Z,4.57
2022-11-04T08:43:34.936Z,2.88
2022-11-04T08:46:04.912Z,2.75
2022-11-04T08:48:32.515Z,2.53
2022-11-04T08:50:59.818Z,2.60
2022-11-04T08:53:27.396Z,3.13
2022-11-04T08:55:54.948Z,2.50
2022-11-04T08:58:23.787Z,2.78
2022-11-04T09:00:52.025Z,2.67
2022-11-04T09:03:19.302Z,2.17
2022-11-04T09:05:48.266Z,2.38
2022-11-04T09:08:17.236Z,2.00
2022-11-04T09:10:45.667Z,2.20
2022-11-04T09:13:15.696Z,2.83
2022-11-04T09:15:44.126Z,2.00
2022-11-04T09:18:11.385Z,2.63
2022-11-04T09:20:38.736Z,2.08
2022-11-04T09:23:07.141Z,2.13
2022-11-04T09:25:35.867Z,1.80
2022-11-04T09:28:04.759Z,1.73
2022-11-04T09:30:32.198Z,2.00
2022-11-04T09:32:59.596Z,1.80
2022-11-04T09:35:29.605Z,2.03
2022-11-04T09:37:59.406Z,1.70
2022-11-04T09:40:26.911Z,2.30
2022-11-04T09:43:12.238Z,1.98
2022-11-04T09:45:41.656Z,2.15
2022-11-04T09:48:19.475Z,1.90
2022-11-04T09:50:54.606Z,2.30
2022-11-04T09:53:33.055Z,2.00
2022-11-04T09:56:21.156Z,1.50
2022-11-04T09:58:49.462Z,2.08
2022-11-04T10:01:19.609Z,2.00
2022-11-04T10:04:15.146Z,2.10
2022-11-04T10:07:20.137Z,2.40
2022-11-04T10:10:13.996Z,2.03
2022-11-04T10:13:02.033Z,2.00
2022-11-04T10:15:38.025Z,2.30
2022-11-04T10:18:19.968Z,1.80
2022-11-04T10:21:00.926Z,1.80
2022-11-04T10:23:36.539Z,2.13
2022-11-04T10:26:28.667Z,1.92
2022-11-04T10:29:02.919Z,1.77
2022-11-04T10:31:30.346Z,1.77
2022-11-04T10:34:12.567Z,1.88
2022-11-04T10:36:41.033Z,1.77
2022-11-04T10:39:18.496Z,1.77
2022-11-04T10:41:47.829Z,1.70
2022-11-04T10:44:25.385Z,1.65
2022-11-04T10:47:39.058Z,2.40
2022-11-04T10:50:29.798Z,1.88
2022-11-04T10:53:14.598Z,1.60
2022-11-04T10:58:28.546Z,1.70
2022-11-04T11:00:57.943Z,2.13
2022-11-04T11:03:35.527Z,1.65
2022-11-04T11:06:19.754Z,1.60
2022-11-04T11:08:47.206Z,2.00
2022-11-04T11:11:16.204Z,2.10
2022-11-04T11:13:46.505Z,1.60
2022-11-04T11:16:19.891Z,1.98
2022-11-04T11:19:11.315Z,2.55
2022-11-04T11:21:57.596Z,1.50
2022-11-04T11:24:30.916Z,1.52
2022-11-04T11:27:01.056Z,1.83
2022-11-04T11:29:40.495Z,2.00
2022-11-04T11:32:36.037Z,1.60
2022-11-04T11:35:07.800Z,2.30
2022-11-04T11:37:40.867Z,1.65
2022-11-04T11:40:25.165Z,1.85
2022-11-04T11:42:52.866Z,1.70
2022-11-04T11:45:23.667Z,1.70
2022-11-04T11:47:55.203Z,1.50
2022-11-04T11:50:35.809Z,1.40
2022-11-04T11:53:18.175Z,1.42
2022-11-04T11:56:40.431Z,2.00
2022-11-04T12:02:30.849Z,1.90
2022-11-04T12:11:04.065Z,1.73
2022-11-04T12:13:46.153Z,2.22
2022-11-04T12:16:37.343Z,1.70
2022-11-04T12:19:26.400Z,1.90
2022-11-04T12:22:05.467Z,1.73
2022-11-04T12:25:05.266Z,1.85
2022-11-04T12:28:10.998Z,2.03
2022-11-04T12:31:10.256Z,1.95
2022-11-04T12:34:06.716Z,1.73
2022-11-04T12:36:50.775Z,1.90
2022-11-04T12:42:20.552Z,1.60
2022-11-04T12:45:07.625Z,1.70
2022-11-04T12:47:41.026Z,1.80
2022-11-04T12:50:33.301Z,1.85
2022-11-04T12:53:21.645Z,1.73
2022-11-04T12:56:11.791Z,2.03
2022-11-04T12:58:53.905Z,2.00
2022-11-04T13:01:35.181Z,3.15
2022-11-04T13:04:17.035Z,1.90
2022-11-04T13:06:53.327Z,2.42
2022-11-04T13:09:32.486Z,1.92
2022-11-04T13:12:07.646Z,1.70
2022-11-04T13:14:59.196Z,2.15
2022-11-04T13:17:41.705Z,2.28
2022-11-04T13:20:14.587Z,1.60
2022-11-04T13:22:48.613Z,1.70
2022-11-04T13:25:15.867Z,2.30
2022-11-04T13:27:48.322Z,1.95
2022-11-04T13:30:25.825Z,2.03
2022-11-04T13:32:55.808Z,1.90
2022-11-04T13:36:02.325Z,1.65
2022-11-04T13:38:45.055Z,1.73
2022-11-04T13:41:32.706Z,2.00
2022-11-04T13:44:04.516Z,1.90
2022-11-04T13:46:34.104Z,1.90
2022-11-04T13:49:05.046Z,2.00
2022-11-04T13:52:02.847Z,2.10
2022-11-04T13:54:30.056Z,1.70
2022-11-04T13:57:16.836Z,1.83
2022-11-04T14:00:09.178Z,2.00
2022-11-04T14:02:48.901Z,1.88
2022-11-04T14:05:42.320Z,2.00
2022-11-04T14:08:17.169Z,1.90
2022-11-04T14:10:51.107Z,1.90
2022-11-04T14:13:30.580Z,1.95
2022-11-04T14:16:02.144Z,1.70
2022-11-04T14:18:41.700Z,1.70
2022-11-04T14:21:13.372Z,1.77
2022-11-04T14:23:49.363Z,1.88
2022-11-04T14:29:28.340Z,1.85
2022-11-04T14:31:59.040Z,1.80
2022-11-04T14:34:27.710Z,2.10
2022-11-04T14:37:20.737Z,1.90
2022-11-04T14:39:57.281Z,2.28
2022-11-04T14:42:58.110Z,2.00
2022-11-04T14:45:38.742Z,1.95
2022-11-04T14:48:18.531Z,2.08
2022-11-04T14:53:34.431Z,1.67
2022-11-04T14:56:16.673Z,2.00
2022-11-04T14:59:03.630Z,1.70
2022-11-04T15:01:35.635Z,2.60
2022-11-04T15:04:25.071Z,2.13
2022-11-04T15:06:57.735Z,1.88
2022-11-04T15:09:26.390Z,1.90
2022-11-04T15:12:29.161Z,2.00
2022-11-04T15:14:57.260Z,2.33
2022-11-04T15:17:28.240Z,1.90
2022-11-04T15:19:59.815Z,2.00
2022-11-04T15:22:29.041Z,1.73
2022-11-04T15:25:06.172Z,2.30
2022-11-04T15:27:34.812Z,2.38
2022-11-04T15:30:04.541Z,2.45
2022-11-04T15:32:32.403Z,1.80
2022-11-04T15:35:00.124Z,2.10
2022-11-04T15:37:29.215Z,2.28
2022-11-04T15:39:58.621Z,1.88
2022-11-04T15:42:45.959Z,2.35
2022-11-04T15:45:39.715Z,1.65
2022-11-04T15:48:38.199Z,2.33
2022-11-04T15:51:13.990Z,1.83
2022-11-04T15:54:12.280Z,2.20
2022-11-04T15:56:44.453Z,2.15
2022-11-04T15:59:18.131Z,2.40
2022-11-04T16:04:20.231Z,2.20
2022-11-04T16:07:02.652Z,1.90
2022-11-04T16:09:30.071Z,2.35
2022-11-04T16:12:27.864Z,1.55
2022-11-04T16:14:59.554Z,2.08
2022-11-04T16:17:30.013Z,2.28
2022-11-04T16:20:00.427Z,1.88
2022-11-04T16:22:34.361Z,1.83
2022-11-04T16:25:05.554Z,2.40
2022-11-04T16:27:36.352Z,2.65
2022-11-04T16:30:16.974Z,2.00
2022-11-04T16:32:48.090Z,2.03
2022-11-04T16:35:26.680Z,2.45
2022-11-04T16:37:56.253Z,2.25
2022-11-04T16:40:25.069Z,2.00
2022-11-04T16:45:37.380Z,2.47
2022-11-04T16:48:05.532Z,3.00
2022-11-04T16:50:33.123Z,2.20
2022-11-04T16:53:02.860Z,2.20
2022-11-04T16:55:30.914Z,2.83
2022-11-04T16:58:03.632Z,3.10
2022-11-04T17:00:33.298Z,2.50
2022-11-04T17:05:43.300Z,2.13
2022-11-04T17:08:12.490Z,2.30
2022-11-04T17:10:39.919Z,2.15
2022-11-04T17:13:07.422Z,1.88
2022-11-04T17:15:34.980Z,1.77
2022-11-04T17:18:02.317Z,1.90
2022-11-04T17:20:31.989Z,2.30
2022-11-04T17:23:00.312Z,1.83
2022-11-04T17:25:29.501Z,2.42
2022-11-04T17:27:56.931Z,2.28
2022-11-04T17:30:25.070Z,2.17
2022-11-04T17:32:52.464Z,1.90
2022-11-04T17:35:19.869Z,1.83
2022-11-04T17:37:53.049Z,2.30
2022-11-04T17:40:22.319Z,2.15
2022-11-04T17:43:11.827Z,2.35
2022-11-04T17:45:42.232Z,2.10
2022-11-04T17:48:10.799Z,2.88
2022-11-04T17:50:40.110Z,1.90
2022-11-04T17:53:07.777Z,2.30
2022-11-04T17:55:40.772Z,2.15
2022-11-04T17:58:08.824Z,2.33
2022-11-04T18:00:36.166Z,2.00
2022-11-04T18:03:03.554Z,2.30
2022-11-04T18:05:30.853Z,2.30
2022-11-04T18:07:58.700Z,2.35
2022-11-04T18:10:26.000Z,2.10
2022-11-04T18:12:53.410Z,2.22
2022-11-04T18:15:20.821Z,2.30
2022-11-04T18:17:50.207Z,2.60
2022-11-04T18:20:17.569Z,2.80
2022-11-04T18:22:45.370Z,2.40
2022-11-04T18:25:13.230Z,1.80
2022-11-04T18:27:40.736Z,2.47
2022-11-04T18:32:49.532Z,2.40
2022-11-04T18:35:16.910Z,2.85
2022-11-04T18:37:47.401Z,2.47
2022-11-04T18:40:15.875Z,2.75
2022-11-04T18:42:43.230Z,2.42
2022-11-04T18:45:11.249Z,2.83
2022-11-04T18:50:19.889Z,2.42
2022-11-04T18:52:47.230Z,2.40
2022-11-04T18:55:14.530Z,2.45
2022-11-04T18:57:41.910Z,2.40
2022-11-04T19:00:16.663Z,2.20
2022-11-04T19:02:44.854Z,2.33
2022-11-04T19:05:12.471Z,2.00
2022-11-04T19:07:42.089Z,2.45
2022-11-04T19:10:10.140Z,2.20
2022-11-04T19:12:56.189Z,3.35
2022-11-04T19:18:04.812Z,3.53
2022-11-04T19:20:32.081Z,2.80
2022-11-04T19:22:59.422Z,2.60
2022-11-04T19:25:26.793Z,2.83
2022-11-04T19:28:18.611Z,3.00
2022-11-04T19:30:41.781Z,2.83
2022-11-04T19:33:09.050Z,3.38
2022-11-04T19:35:36.371Z,3.47
2022-11-04T19:38:03.721Z,3.80
2022-11-04T19:40:31.091Z,4.50
2022-11-04T19:45:51.731Z,3.13
2022-11-04T19:48:19.950Z,2.83
2022-11-04T19:50:49.459Z,2.92
2022-11-04T19:53:18.423Z,3.10
2022-11-04T19:55:59.345Z,3.20
2022-11-04T19:58:26.525Z,2.75
2022-11-04T20:00:53.695Z,2.80
2022-11-04T20:03:21.054Z,3.15
2022-11-04T20:05:48.163Z,3.10
2022-11-04T20:08:15.356Z,2.67
2022-11-04T20:10:43.792Z,2.90
2022-11-04T20:13:35.166Z,2.97
2022-11-04T20:16:11.275Z,3.28
2022-11-04T20:18:38.435Z,2.90
2022-11-04T20:21:06.065Z,2.95
2022-11-04T20:23:33.264Z,3.38
2022-11-04T20:26:22.984Z,3.53
2022-11-04T20:28:51.664Z,3.15
2022-11-04T20:31:21.357Z,2.80
2022-11-04T20:33:50.385Z,2.60
2022-11-04T20:36:19.924Z,3.10
2022-11-04T20:38:47.588Z,3.30
2022-11-04T20:41:18.893Z,3.30
2022-11-04T20:43:48.214Z,3.50
2022-11-04T20:46:18.494Z,3.28
2022-11-04T20:48:47.636Z,3.08
2022-11-04T20:51:20.193Z,3.53
2022-11-04T20:53:48.117Z,3.10
2022-11-04T20:56:19.567Z,3.60
2022-11-04T20:58:48.543Z,3.40
2022-11-04T21:01:21.555Z,3.40
2022-11-04T21:03:48.904Z,2.97
2022-11-04T21:06:16.014Z,2.58
2022-11-04T21:08:43.114Z,2.60
2022-11-04T21:11:10.324Z,2.88
2022-11-04T21:13:37.484Z,2.90
2022-11-04T21:16:04.845Z,3.00
2022-11-04T21:18:32.354Z,3.17
2022-11-04T21:21:04.024Z,3.13
2022-11-04T21:23:31.386Z,3.30
2022-11-04T21:26:07.634Z,3.88
2022-11-04T21:28:35.256Z,3.40
2022-11-04T21:31:05.864Z,2.97
2022-11-04T21:33:33.254Z,4.47
2022-11-04T21:36:08.664Z,3.50
2022-11-04T21:38:35.980Z,3.88
2022-11-04T21:41:08.114Z,3.95
2022-11-04T21:43:35.324Z,4.10
2022-11-04T21:46:07.964Z,3.70
2022-11-04T21:48:36.535Z,4.05
2022-11-04T21:51:09.475Z,3.58
2022-11-04T21:53:36.763Z,3.50
2022-11-04T21:56:08.484Z,2.88
2022-11-04T21:58:36.625Z,3.30
2022-11-04T22:01:05.580Z,4.10
2022-11-04T22:03:35.225Z,4.07
2022-11-04T22:06:11.066Z,3.35
2022-11-04T22:08:39.246Z,4.47
2022-11-04T22:11:16.285Z,3.88
2022-11-04T22:13:43.494Z,3.95
2022-11-04T22:16:19.724Z,3.60
2022-11-04T22:18:47.275Z,3.97
2022-11-04T22:21:17.628Z,3.72
2022-11-04T22:23:45.184Z,3.20
2022-11-04T22:26:17.885Z,2.95
2022-11-04T22:28:45.404Z,3.28
2022-11-04T22:31:44.868Z,3.10
2022-11-04T22:34:13.943Z,2.90
2022-11-04T22:36:41.154Z,3.90
2022-11-04T22:39:15.055Z,3.40
2022-11-04T22:41:44.063Z,4.28
2022-11-04T22:44:11.222Z,3.88
2022-11-04T22:46:39.187Z,4.30
2022-11-04T22:49:07.200Z,4.00
2022-11-04T22:51:34.384Z,3.15
2022-11-04T22:54:07.660Z,3.63
2022-11-04T22:56:35.789Z,3.88
2022-11-04T22:59:03.185Z,4.35
2022-11-04T23:01:31.909Z,3.20
2022-11-04T23:03:59.347Z,3.40
2022-11-04T23:06:26.607Z,2.83
2022-11-04T23:08:59.722Z,3.10
2022-11-04T23:11:47.256Z,2.60
2022-11-04T23:14:34.622Z,3.10
2022-11-04T23:17:20.594Z,3.70
2022-11-04T23:19:50.075Z,3.13
2022-11-04T23:22:35.825Z,3.25
2022-11-04T23:25:06.071Z,3.00
2022-11-04T23:27:53.214Z,3.10
2022-11-04T23:30:24.242Z,3.00
2022-11-04T23:32:52.493Z,3.85
2022-11-04T23:35:40.014Z,2.60
2022-11-04T23:38:07.224Z,2.78
2022-11-04T23:40:34.664Z,3.28
2022-11-04T23:43:02.007Z,2.53
2022-11-04T23:45:47.744Z,2.42
2022-11-04T23:48:33.910Z,2.53
2022-11-04T23:51:20.854Z,2.70
2022-11-04T23:54:06.993Z,3.13
2022-11-04T23:56:52.881Z,3.13
2022-11-04T23:59:39.140Z,3.13
